sensor_id;sensor_type;location;lat;lon;timestamp;P1;durP1;ratioP1;P2;durP2;ratioP2
16969;SDS011;8601;48.718;8.992;2024-03-17T00:00:07;6.90;;;6.20;;
16969;SDS011;8601;48.718;8.992;2024-03-17T00:02:39;8.97;;;6.50;;
16969;SDS011;8601;48.718;8.992;2024-03-17T00:05:06;6.90;;;6.27;;
16969;SDS011;8601;48.718;8.992;2024-03-17T00:07:35;9.40;;;6.07;;
16969;SDS011;8601;48.718;8.992;2024-03-17T00:10:03;6.73;;;5.13;;
16969;SDS011;8601;48.718;8.992;2024-03-17T00:12:30;6.43;;;5.83;;
16969;SDS011;8601;48.718;8.992;2024-03-17T00:14:56;7.07;;;5.93;;
16969;SDS011;8601;48.718;8.992;2024-03-17T00:17:23;7.93;;;6.87;;
16969;SDS011;8601;48.718;8.992;2024-03-17T00:19:49;8.10;;;6.87;;
16969;SDS011;8601;48.718;8.992;2024-03-17T00:22:16;9.07;;;6.33;;
16969;SDS011;8601;48.718;8.992;2024-03-17T00:24:51;6.77;;;6.03;;
16969;SDS011;8601;48.718;8.992;2024-03-17T00:27:18;5.53;;;4.93;;
16969;SDS011;8601;48.718;8.992;2024-03-17T00:29:51;7.33;;;5.63;;
16969;SDS011;8601;48.718;8.992;2024-03-17T00:32:18;6.43;;;5.83;;
16969;SDS011;8601;48.718;8.992;2024-03-17T00:34:44;5.90;;;5.30;;
16969;SDS011;8601;48.718;8.992;2024-03-17T00:37:11;5.90;;;5.30;;
16969;SDS011;8601;48.718;8.992;2024-03-17T00:39:37;6.53;;;5.87;;
16969;SDS011;8601;48.718;8.992;2024-03-17T00:42:05;7.93;;;5.77;;
16969;SDS011;8601;48.718;8.992;2024-03-17T00:44:37;5.73;;;5.13;;
16969;SDS011;8601;48.718;8.992;2024-03-17T00:47:04;6.27;;;5.67;;
16969;SDS011;8601;48.718;8.992;2024-03-17T00:49:30;6.00;;;5.40;;
16969;SDS011;8601;48.718;8.992;2024-03-17T00:51:57;6.43;;;5.83;;
16969;SDS011;8601;48.718;8.992;2024-03-17T00:54:23;6.80;;;5.33;;
16969;SDS011;8601;48.718;8.992;2024-03-17T00:56:50;6.30;;;5.00;;
16969;SDS011;8601;48.718;8.992;2024-03-17T00:59:17;8.13;;;6.07;;
16969;SDS011;8601;48.718;8.992;2024-03-17T01:01:45;6.80;;;5.30;;
16969;SDS011;8601;48.718;8.992;2024-03-17T01:04:11;5.33;;;4.57;;
16969;SDS011;8601;48.718;8.992;2024-03-17T01:06:38;6.63;;;4.93;;
16969;SDS011;8601;48.718;8.992;2024-03-17T01:09:06;6.97;;;4.80;;
16969;SDS011;8601;48.718;8.992;2024-03-17T01:14:23;5.77;;;5.17;;
16969;SDS011;8601;48.718;8.992;2024-03-17T01:16:50;5.60;;;4.77;;
16969;SDS011;8601;48.718;8.992;2024-03-17T01:19:16;6.53;;;5.47;;
16969;SDS011;8601;48.718;8.992;2024-03-17T01:21:43;5.80;;;5.20;;
16969;SDS011;8601;48.718;8.992;2024-03-17T01:24:09;6.83;;;5.60;;
16969;SDS011;8601;48.718;8.992;2024-03-17T01:26:36;7.30;;;5.70;;
16969;SDS011;8601;48.718;8.992;2024-03-17T01:29:15;7.93;;;5.90;;
16969;SDS011;8601;48.718;8.992;2024-03-17T01:31:43;7.80;;;5.33;;
16969;SDS011;8601;48.718;8.992;2024-03-17T01:34:09;6.20;;;5.43;;
16969;SDS011;8601;48.718;8.992;2024-03-17T01:36:41;6.13;;;5.53;;
16969;SDS011;8601;48.718;8.992;2024-03-17T01:39:10;8.27;;;6.50;;
16969;SDS011;8601;48.718;8.992;2024-03-17T01:41:37;6.43;;;5.73;;
16969;SDS011;8601;48.718;8.992;2024-03-17T01:44:03;5.70;;;5.10;;
16969;SDS011;8601;48.718;8.992;2024-03-17T01:46:30;6.73;;;5.77;;
16969;SDS011;8601;48.718;8.992;2024-03-17T01:49:02;7.17;;;5.77;;
16969;SDS011;8601;48.718;8.992;2024-03-17T01:51:29;6.67;;;5.80;;
16969;SDS011;8601;48.718;8.992;2024-03-17T01:53:55;6.70;;;5.60;;
16969;SDS011;8601;48.718;8.992;2024-03-17T01:56:22;7.60;;;5.53;;
16969;SDS011;8601;48.718;8.992;2024-03-17T01:58:48;7.43;;;5.80;;
16969;SDS011;8601;48.718;8.992;2024-03-17T02:01:15;5.60;;;5.00;;
16969;SDS011;8601;48.718;8.992;2024-03-17T02:03:41;5.20;;;4.70;;
16969;SDS011;8601;48.718;8.992;2024-03-17T02:06:10;6.10;;;4.93;;
16969;SDS011;8601;48.718;8.992;2024-03-17T02:08:50;7.03;;;5.60;;
16969;SDS011;8601;48.718;8.992;2024-03-17T02:11:23;6.87;;;5.30;;
16969;SDS011;8601;48.718;8.992;2024-03-17T02:13:50;6.47;;;5.87;;
16969;SDS011;8601;48.718;8.992;2024-03-17T02:16:17;5.40;;;4.77;;
16969;SDS011;8601;48.718;8.992;2024-03-17T02:18:44;6.90;;;5.20;;
16969;SDS011;8601;48.718;8.992;2024-03-17T02:21:20;5.97;;;5.20;;
16969;SDS011;8601;48.718;8.992;2024-03-17T02:24:00;5.17;;;4.67;;
16969;SDS011;8601;48.718;8.992;2024-03-17T02:26:27;6.23;;;5.53;;
16969;SDS011;8601;48.718;8.992;2024-03-17T02:28:53;7.23;;;5.77;;
16969;SDS011;8601;48.718;8.992;2024-03-17T02:31:31;6.80;;;5.83;;
16969;SDS011;8601;48.718;8.992;2024-03-17T02:34:01;5.50;;;4.83;;
16969;SDS011;8601;48.718;8.992;2024-03-17T02:36:32;5.97;;;5.23;;
16969;SDS011;8601;48.718;8.992;2024-03-17T02:38:58;5.53;;;4.97;;
16969;SDS011;8601;48.718;8.992;2024-03-17T02:41:57;5.20;;;4.70;;
16969;SDS011;8601;48.718;8.992;2024-03-17T02:44:24;5.40;;;4.90;;
16969;SDS011;8601;48.718;8.992;2024-03-17T02:46:50;6.37;;;4.90;;
16969;SDS011;8601;48.718;8.992;2024-03-17T02:49:17;6.47;;;5.80;;
16969;SDS011;8601;48.718;8.992;2024-03-17T02:57:29;5.10;;;4.70;;
16969;SDS011;8601;48.718;8.992;2024-03-17T02:59:57;5.87;;;4.87;;
16969;SDS011;8601;48.718;8.992;2024-03-17T03:02:24;6.30;;;5.17;;
16969;SDS011;8601;48.718;8.992;2024-03-17T03:04:51;6.73;;;5.73;;
16969;SDS011;8601;48.718;8.992;2024-03-17T03:07:18;5.20;;;4.70;;
16969;SDS011;8601;48.718;8.992;2024-03-17T03:09:46;7.77;;;5.27;;
16969;SDS011;8601;48.718;8.992;2024-03-17T03:12:14;5.97;;;5.37;;
16969;SDS011;8601;48.718;8.992;2024-03-17T03:14:41;6.20;;;5.60;;
16969;SDS011;8601;48.718;8.992;2024-03-17T03:17:07;7.37;;;5.17;;
16969;SDS011;8601;48.718;8.992;2024-03-17T03:22:21;6.10;;;5.50;;
16969;SDS011;8601;48.718;8.992;2024-03-17T03:24:51;7.33;;;5.70;;
16969;SDS011;8601;48.718;8.992;2024-03-17T03:27:19;7.40;;;6.00;;
16969;SDS011;8601;48.718;8.992;2024-03-17T03:29:46;7.63;;;5.73;;
16969;SDS011;8601;48.718;8.992;2024-03-17T03:32:13;7.97;;;5.30;;
16969;SDS011;8601;48.718;8.992;2024-03-17T03:34:47;6.17;;;5.40;;
16969;SDS011;8601;48.718;8.992;2024-03-17T03:37:14;7.90;;;5.33;;
16969;SDS011;8601;48.718;8.992;2024-03-17T03:39:41;6.53;;;5.77;;
16969;SDS011;8601;48.718;8.992;2024-03-17T03:45:19;5.40;;;4.90;;
16969;SDS011;8601;48.718;8.992;2024-03-17T03:47:46;7.83;;;5.27;;
16969;SDS011;8601;48.718;8.992;2024-03-17T03:50:16;7.53;;;5.30;;
16969;SDS011;8601;48.718;8.992;2024-03-17T03:55:20;7.47;;;5.17;;
16969;SDS011;8601;48.718;8.992;2024-03-17T03:57:47;5.83;;;5.30;;
16969;SDS011;8601;48.718;8.992;2024-03-17T04:03:34;5.97;;;5.37;;
16969;SDS011;8601;48.718;8.992;2024-03-17T04:06:03;6.37;;;5.17;;
16969;SDS011;8601;48.718;8.992;2024-03-17T04:08:32;7.43;;;5.97;;
16969;SDS011;8601;48.718;8.992;2024-03-17T04:10:59;7.33;;;6.10;;
16969;SDS011;8601;48.718;8.992;2024-03-17T04:13:32;7.50;;;6.03;;
16969;SDS011;8601;48.718;8.992;2024-03-17T04:15:59;5.70;;;5.10;;
16969;SDS011;8601;48.718;8.992;2024-03-17T04:18:26;7.63;;;5.70;;
16969;SDS011;8601;48.718;8.992;2024-03-17T04:21:03;6.13;;;5.53;;
16969;SDS011;8601;48.718;8.992;2024-03-17T04:23:31;7.60;;;6.27;;
16969;SDS011;8601;48.718;8.992;2024-03-17T04:25:58;6.37;;;5.63;;
16969;SDS011;8601;48.718;8.992;2024-03-17T04:28:26;6.40;;;5.80;;
16969;SDS011;8601;48.718;8.992;2024-03-17T04:30:53;6.90;;;5.90;;
16969;SDS011;8601;48.718;8.992;2024-03-17T04:33:29;7.20;;;6.23;;
16969;SDS011;8601;48.718;8.992;2024-03-17T04:35:57;7.40;;;5.70;;
16969;SDS011;8601;48.718;8.992;2024-03-17T04:38:25;6.97;;;5.83;;
16969;SDS011;8601;48.718;8.992;2024-03-17T04:40:52;7.00;;;6.17;;
16969;SDS011;8601;48.718;8.992;2024-03-17T04:43:28;6.17;;;5.57;;
16969;SDS011;8601;48.718;8.992;2024-03-17T04:45:59;7.40;;;5.80;;
16969;SDS011;8601;48.718;8.992;2024-03-17T04:48:29;6.50;;;5.77;;
16969;SDS011;8601;48.718;8.992;2024-03-17T04:56:34;6.27;;;5.67;;
16969;SDS011;8601;48.718;8.992;2024-03-17T04:59:01;7.20;;;5.93;;
16969;SDS011;8601;48.718;8.992;2024-03-17T05:01:28;6.50;;;5.77;;
16969;SDS011;8601;48.718;8.992;2024-03-17T05:03:56;7.83;;;5.67;;
16969;SDS011;8601;48.718;8.992;2024-03-17T05:06:23;6.37;;;5.77;;
16969;SDS011;8601;48.718;8.992;2024-03-17T05:08:50;7.07;;;6.37;;
16969;SDS011;8601;48.718;8.992;2024-03-17T05:11:18;7.13;;;6.43;;
16969;SDS011;8601;48.718;8.992;2024-03-17T05:13:45;7.03;;;6.30;;
16969;SDS011;8601;48.718;8.992;2024-03-17T05:16:12;9.93;;;6.37;;
16969;SDS011;8601;48.718;8.992;2024-03-17T05:18:39;7.90;;;6.23;;
16969;SDS011;8601;48.718;8.992;2024-03-17T05:21:06;6.10;;;5.47;;
16969;SDS011;8601;48.718;8.992;2024-03-17T05:23:34;7.33;;;6.00;;
16969;SDS011;8601;48.718;8.992;2024-03-17T05:26:02;8.83;;;5.57;;
16969;SDS011;8601;48.718;8.992;2024-03-17T05:28:31;7.63;;;6.17;;
16969;SDS011;8601;48.718;8.992;2024-03-17T05:30:59;8.93;;;6.17;;
16969;SDS011;8601;48.718;8.992;2024-03-17T05:33:26;7.53;;;6.00;;
16969;SDS011;8601;48.718;8.992;2024-03-17T05:35:53;6.93;;;5.30;;
16969;SDS011;8601;48.718;8.992;2024-03-17T05:38:21;6.63;;;5.93;;
16969;SDS011;8601;48.718;8.992;2024-03-17T05:40:55;9.40;;;7.20;;
16969;SDS011;8601;48.718;8.992;2024-03-17T05:43:29;8.83;;;7.20;;
16969;SDS011;8601;48.718;8.992;2024-03-17T05:46:01;7.77;;;6.97;;
16969;SDS011;8601;48.718;8.992;2024-03-17T05:48:35;11.13;;;7.87;;
16969;SDS011;8601;48.718;8.992;2024-03-17T05:51:03;9.77;;;8.70;;
16969;SDS011;8601;48.718;8.992;2024-03-17T05:53:30;9.53;;;8.20;;
16969;SDS011;8601;48.718;8.992;2024-03-17T05:55:58;7.90;;;6.83;;
16969;SDS011;8601;48.718;8.992;2024-03-17T05:58:42;7.93;;;7.13;;
16969;SDS011;8601;48.718;8.992;2024-03-17T06:01:09;7.40;;;6.70;;
16969;SDS011;8601;48.718;8.992;2024-03-17T06:03:36;7.67;;;6.57;;
16969;SDS011;8601;48.718;8.992;2024-03-17T06:06:09;9.17;;;7.10;;
16969;SDS011;8601;48.718;8.992;2024-03-17T06:08:36;7.90;;;6.47;;
16969;SDS011;8601;48.718;8.992;2024-03-17T06:11:04;7.93;;;7.10;;
16969;SDS011;8601;48.718;8.992;2024-03-17T06:13:42;7.83;;;7.03;;
16969;SDS011;8601;48.718;8.992;2024-03-17T06:16:09;7.63;;;6.87;;
16969;SDS011;8601;48.718;8.992;2024-03-17T06:21:25;9.33;;;7.20;;
16969;SDS011;8601;48.718;8.992;2024-03-17T06:23:52;8.07;;;7.13;;
16969;SDS011;8601;48.718;8.992;2024-03-17T06:26:19;8.37;;;7.53;;
16969;SDS011;8601;48.718;8.992;2024-03-17T06:28:49;8.83;;;7.93;;
16969;SDS011;8601;48.718;8.992;2024-03-17T06:31:15;9.00;;;7.07;;
16969;SDS011;8601;48.718;8.992;2024-03-17T06:36:32;8.07;;;6.40;;
16969;SDS011;8601;48.718;8.992;2024-03-17T06:39:08;8.57;;;7.07;;
16969;SDS011;8601;48.718;8.992;2024-03-17T06:41:35;9.73;;;6.80;;
16969;SDS011;8601;48.718;8.992;2024-03-17T06:44:04;7.97;;;7.17;;
16969;SDS011;8601;48.718;8.992;2024-03-17T06:46:31;9.80;;;8.13;;
16969;SDS011;8601;48.718;8.992;2024-03-17T06:48:58;9.53;;;8.53;;
16969;SDS011;8601;48.718;8.992;2024-03-17T06:51:25;11.23;;;9.50;;
16969;SDS011;8601;48.718;8.992;2024-03-17T06:53:52;10.77;;;8.83;;
16969;SDS011;8601;48.718;8.992;2024-03-17T06:56:19;12.63;;;9.90;;
16969;SDS011;8601;48.718;8.992;2024-03-17T06:58:45;11.70;;;9.77;;
16969;SDS011;8601;48.718;8.992;2024-03-17T07:04:19;11.27;;;10.00;;
16969;SDS011;8601;48.718;8.992;2024-03-17T07:06:46;10.37;;;8.87;;
16969;SDS011;8601;48.718;8.992;2024-03-17T07:09:26;15.03;;;10.50;;
16969;SDS011;8601;48.718;8.992;2024-03-17T07:11:53;12.30;;;11.00;;
16969;SDS011;8601;48.718;8.992;2024-03-17T07:14:20;14.07;;;10.27;;
16969;SDS011;8601;48.718;8.992;2024-03-17T07:16:47;12.43;;;10.60;;
16969;SDS011;8601;48.718;8.992;2024-03-17T07:22:04;11.30;;;9.63;;
16969;SDS011;8601;48.718;8.992;2024-03-17T07:24:31;11.43;;;9.40;;
16969;SDS011;8601;48.718;8.992;2024-03-17T07:26:58;12.20;;;10.60;;
16969;SDS011;8601;48.718;8.992;2024-03-17T07:29:25;13.80;;;10.10;;
16969;SDS011;8601;48.718;8.992;2024-03-17T07:31:52;11.00;;;9.73;;
16969;SDS011;8601;48.718;8.992;2024-03-17T07:34:19;12.47;;;9.73;;
16969;SDS011;8601;48.718;8.992;2024-03-17T07:36:47;11.07;;;9.90;;
16969;SDS011;8601;48.718;8.992;2024-03-17T07:39:16;9.67;;;8.67;;
16969;SDS011;8601;48.718;8.992;2024-03-17T07:41:43;12.20;;;10.07;;
16969;SDS011;8601;48.718;8.992;2024-03-17T07:44:12;11.20;;;9.40;;
16969;SDS011;8601;48.718;8.992;2024-03-17T07:46:38;9.20;;;8.30;;
16969;SDS011;8601;48.718;8.992;2024-03-17T07:49:13;10.67;;;9.00;;
16969;SDS011;8601;48.718;8.992;2024-03-17T07:51:41;10.43;;;8.07;;
16969;SDS011;8601;48.718;8.992;2024-03-17T07:54:15;8.57;;;7.27;;
16969;SDS011;8601;48.718;8.992;2024-03-17T07:56:44;7.80;;;6.77;;
16969;SDS011;8601;48.718;8.992;2024-03-17T07:59:11;9.43;;;6.57;;
16969;SDS011;8601;48.718;8.992;2024-03-17T08:01:43;7.37;;;6.40;;
16969;SDS011;8601;48.718;8.992;2024-03-17T08:04:10;7.53;;;6.27;;
16969;SDS011;8601;48.718;8.992;2024-03-17T08:06:39;7.93;;;6.73;;
16969;SDS011;8601;48.718;8.992;2024-03-17T08:09:06;7.20;;;6.50;;
16969;SDS011;8601;48.718;8.992;2024-03-17T08:11:53;8.07;;;7.27;;
16969;SDS011;8601;48.718;8.992;2024-03-17T08:14:20;7.87;;;6.93;;
16969;SDS011;8601;48.718;8.992;2024-03-17T08:19:35;8.87;;;7.73;;
16969;SDS011;8601;48.718;8.992;2024-03-17T08:22:02;8.87;;;7.67;;
16969;SDS011;8601;48.718;8.992;2024-03-17T08:24:30;9.53;;;8.57;;
16969;SDS011;8601;48.718;8.992;2024-03-17T08:26:58;9.70;;;8.70;;
16969;SDS011;8601;48.718;8.992;2024-03-17T08:29:27;9.83;;;8.43;;
16969;SDS011;8601;48.718;8.992;2024-03-17T08:31:54;8.87;;;7.83;;
16969;SDS011;8601;48.718;8.992;2024-03-17T08:34:21;8.77;;;7.87;;
16969;SDS011;8601;48.718;8.992;2024-03-17T08:36:52;10.07;;;9.17;;
16969;SDS011;8601;48.718;8.992;2024-03-17T08:39:19;9.70;;;8.80;;
16969;SDS011;8601;48.718;8.992;2024-03-17T08:41:45;9.40;;;8.50;;
16969;SDS011;8601;48.718;8.992;2024-03-17T08:44:14;9.97;;;8.97;;
16969;SDS011;8601;48.718;8.992;2024-03-17T08:46:42;10.00;;;8.87;;
16969;SDS011;8601;48.718;8.992;2024-03-17T08:49:10;9.63;;;8.67;;
16969;SDS011;8601;48.718;8.992;2024-03-17T08:51:37;10.30;;;9.20;;
16969;SDS011;8601;48.718;8.992;2024-03-17T08:54:04;9.90;;;8.80;;
16969;SDS011;8601;48.718;8.992;2024-03-17T08:56:32;9.77;;;8.57;;
16969;SDS011;8601;48.718;8.992;2024-03-17T08:59:00;10.10;;;8.33;;
16969;SDS011;8601;48.718;8.992;2024-03-17T09:01:29;10.20;;;8.20;;
16969;SDS011;8601;48.718;8.992;2024-03-17T09:03:59;9.70;;;8.77;;
16969;SDS011;8601;48.718;8.992;2024-03-17T09:06:30;6.93;;;6.33;;
16969;SDS011;8601;48.718;8.992;2024-03-17T09:08:57;8.77;;;7.23;;
16969;SDS011;8601;48.718;8.992;2024-03-17T09:11:24;5.77;;;5.20;;
16969;SDS011;8601;48.718;8.992;2024-03-17T09:13:58;7.33;;;6.10;;
16969;SDS011;8601;48.718;8.992;2024-03-17T09:16:26;6.13;;;4.87;;
16969;SDS011;8601;48.718;8.992;2024-03-17T09:18:56;5.23;;;4.70;;
16969;SDS011;8601;48.718;8.992;2024-03-17T09:21:23;5.53;;;4.97;;
16969;SDS011;8601;48.718;8.992;2024-03-17T09:23:50;5.20;;;4.70;;
16969;SDS011;8601;48.718;8.992;2024-03-17T09:26:31;6.20;;;4.43;;
16969;SDS011;8601;48.718;8.992;2024-03-17T09:28:59;5.37;;;4.00;;
16969;SDS011;8601;48.718;8.992;2024-03-17T09:31:26;4.83;;;4.33;;
16969;SDS011;8601;48.718;8.992;2024-03-17T09:33:57;6.03;;;5.00;;
16969;SDS011;8601;48.718;8.992;2024-03-17T09:36:25;7.30;;;5.87;;
16969;SDS011;8601;48.718;8.992;2024-03-17T09:38:52;5.63;;;4.93;;
16969;SDS011;8601;48.718;8.992;2024-03-17T09:41:20;6.00;;;4.80;;
16969;SDS011;8601;48.718;8.992;2024-03-17T09:43:49;8.10;;;6.73;;
16969;SDS011;8601;48.718;8.992;2024-03-17T09:46:19;5.00;;;4.50;;
16969;SDS011;8601;48.718;8.992;2024-03-17T09:48:48;5.23;;;4.73;;
16969;SDS011;8601;48.718;8.992;2024-03-17T09:51:23;6.30;;;3.57;;
16969;SDS011;8601;48.718;8.992;2024-03-17T09:53:51;4.27;;;3.33;;
16969;SDS011;8601;48.718;8.992;2024-03-17T09:56:19;3.77;;;3.47;;
16969;SDS011;8601;48.718;8.992;2024-03-17T09:58:46;4.27;;;3.87;;
16969;SDS011;8601;48.718;8.992;2024-03-17T10:01:14;3.37;;;3.07;;
16969;SDS011;8601;48.718;8.992;2024-03-17T10:03:43;4.83;;;3.73;;
16969;SDS011;8601;48.718;8.992;2024-03-17T10:06:12;3.93;;;3.10;;
16969;SDS011;8601;48.718;8.992;2024-03-17T10:08:45;4.23;;;3.73;;
16969;SDS011;8601;48.718;8.992;2024-03-17T10:11:13;4.20;;;3.77;;
16969;SDS011;8601;48.718;8.992;2024-03-17T10:13:41;3.70;;;3.40;;
16969;SDS011;8601;48.718;8.992;2024-03-17T10:16:21;3.33;;;3.03;;
16969;SDS011;8601;48.718;8.992;2024-03-17T10:18:50;4.53;;;3.70;;
16969;SDS011;8601;48.718;8.992;2024-03-17T10:21:24;3.97;;;3.30;;
16969;SDS011;8601;48.718;8.992;2024-03-17T10:24:05;3.37;;;3.00;;
16969;SDS011;8601;48.718;8.992;2024-03-17T10:26:40;3.73;;;3.13;;
16969;SDS011;8601;48.718;8.992;2024-03-17T10:29:21;4.67;;;3.20;;
16969;SDS011;8601;48.718;8.992;2024-03-17T10:31:50;3.97;;;3.10;;
16969;SDS011;8601;48.718;8.992;2024-03-17T10:34:18;3.87;;;2.90;;
16969;SDS011;8601;48.718;8.992;2024-03-17T10:36:45;2.87;;;2.67;;
16969;SDS011;8601;48.718;8.992;2024-03-17T10:41:56;4.70;;;4.23;;
16969;SDS011;8601;48.718;8.992;2024-03-17T10:44:27;5.80;;;4.13;;
16969;SDS011;8601;48.718;8.992;2024-03-17T10:46:56;3.73;;;2.93;;
16969;SDS011;8601;48.718;8.992;2024-03-17T10:49:28;3.83;;;2.60;;
16969;SDS011;8601;48.718;8.992;2024-03-17T10:51:57;3.67;;;3.03;;
16969;SDS011;8601;48.718;8.992;2024-03-17T10:54:27;3.77;;;2.60;;
16969;SDS011;8601;48.718;8.992;2024-03-17T10:56:57;4.20;;;2.70;;
16969;SDS011;8601;48.718;8.992;2024-03-17T10:59:40;3.93;;;3.00;;
16969;SDS011;8601;48.718;8.992;2024-03-17T11:02:14;4.33;;;3.03;;
16969;SDS011;8601;48.718;8.992;2024-03-17T11:04:58;5.60;;;2.90;;
16969;SDS011;8601;48.718;8.992;2024-03-17T11:07:29;3.57;;;3.13;;
16969;SDS011;8601;48.718;8.992;2024-03-17T11:10:01;4.03;;;2.80;;
16969;SDS011;8601;48.718;8.992;2024-03-17T11:12:43;3.20;;;2.87;;
16969;SDS011;8601;48.718;8.992;2024-03-17T11:21:18;3.37;;;2.30;;
16969;SDS011;8601;48.718;8.992;2024-03-17T11:23:54;2.43;;;2.17;;
16969;SDS011;8601;48.718;8.992;2024-03-17T11:26:27;2.33;;;1.80;;
16969;SDS011;8601;48.718;8.992;2024-03-17T11:28:56;2.33;;;2.13;;
16969;SDS011;8601;48.718;8.992;2024-03-17T11:31:42;3.67;;;1.97;;
16969;SDS011;8601;48.718;8.992;2024-03-17T11:37:04;3.17;;;2.03;;
16969;SDS011;8601;48.718;8.992;2024-03-17T11:39:46;3.33;;;2.20;;
16969;SDS011;8601;48.718;8.992;2024-03-17T11:42:23;3.10;;;2.53;;
16969;SDS011;8601;48.718;8.992;2024-03-17T11:44:58;3.10;;;1.90;;
16969;SDS011;8601;48.718;8.992;2024-03-17T11:47:36;1.80;;;1.50;;
16969;SDS011;8601;48.718;8.992;2024-03-17T11:50:05;2.10;;;1.77;;
16969;SDS011;8601;48.718;8.992;2024-03-17T11:52:33;2.20;;;2.00;;
16969;SDS011;8601;48.718;8.992;2024-03-17T11:55:00;2.20;;;1.77;;
16969;SDS011;8601;48.718;8.992;2024-03-17T11:57:28;2.27;;;1.60;;
16969;SDS011;8601;48.718;8.992;2024-03-17T11:59:56;2.33;;;1.73;;
16969;SDS011;8601;48.718;8.992;2024-03-17T12:02:23;3.87;;;1.90;;
16969;SDS011;8601;48.718;8.992;2024-03-17T12:04:51;2.13;;;1.67;;
16969;SDS011;8601;48.718;8.992;2024-03-17T12:07:18;2.10;;;1.60;;
16969;SDS011;8601;48.718;8.992;2024-03-17T12:09:48;3.17;;;1.97;;
16969;SDS011;8601;48.718;8.992;2024-03-17T12:12:16;1.90;;;1.77;;
16969;SDS011;8601;48.718;8.992;2024-03-17T12:14:45;2.77;;;1.70;;
16969;SDS011;8601;48.718;8.992;2024-03-17T12:17:13;3.83;;;1.90;;
16969;SDS011;8601;48.718;8.992;2024-03-17T12:19:41;3.57;;;2.00;;
16969;SDS011;8601;48.718;8.992;2024-03-17T12:22:09;3.13;;;1.90;;
16969;SDS011;8601;48.718;8.992;2024-03-17T12:24:45;2.00;;;1.73;;
16969;SDS011;8601;48.718;8.992;2024-03-17T12:27:15;2.40;;;1.77;;
16969;SDS011;8601;48.718;8.992;2024-03-17T12:29:43;2.60;;;2.00;;
16969;SDS011;8601;48.718;8.992;2024-03-17T12:32:14;2.63;;;1.77;;
16969;SDS011;8601;48.718;8.992;2024-03-17T12:34:41;2.03;;;1.83;;
16969;SDS011;8601;48.718;8.992;2024-03-17T12:37:13;2.20;;;1.50;;
16969;SDS011;8601;48.718;8.992;2024-03-17T12:39:43;3.27;;;1.80;;
16969;SDS011;8601;48.718;8.992;2024-03-17T12:42:10;2.33;;;1.67;;
16969;SDS011;8601;48.718;8.992;2024-03-17T12:44:38;3.00;;;1.80;;
16969;SDS011;8601;48.718;8.992;2024-03-17T12:47:14;2.00;;;1.60;;
16969;SDS011;8601;48.718;8.992;2024-03-17T12:49:44;2.67;;;1.97;;
16969;SDS011;8601;48.718;8.992;2024-03-17T12:52:16;3.83;;;1.90;;
16969;SDS011;8601;48.718;8.992;2024-03-17T12:54:43;2.37;;;1.60;;
16969;SDS011;8601;48.718;8.992;2024-03-17T12:57:20;1.80;;;1.70;;
16969;SDS011;8601;48.718;8.992;2024-03-17T13:00:17;2.57;;;1.73;;
16969;SDS011;8601;48.718;8.992;2024-03-17T13:03:05;3.43;;;1.80;;
16969;SDS011;8601;48.718;8.992;2024-03-17T13:05:33;2.87;;;1.80;;
16969;SDS011;8601;48.718;8.992;2024-03-17T13:08:00;2.07;;;1.83;;
16969;SDS011;8601;48.718;8.992;2024-03-17T13:10:29;2.70;;;1.90;;
16969;SDS011;8601;48.718;8.992;2024-03-17T13:13:00;2.60;;;1.80;;
16969;SDS011;8601;48.718;8.992;2024-03-17T13:15:28;2.20;;;1.90;;
16969;SDS011;8601;48.718;8.992;2024-03-17T13:17:56;2.97;;;1.83;;
16969;SDS011;8601;48.718;8.992;2024-03-17T13:20:23;2.10;;;1.90;;
16969;SDS011;8601;48.718;8.992;2024-03-17T13:22:52;2.43;;;1.90;;
16969;SDS011;8601;48.718;8.992;2024-03-17T13:25:19;2.87;;;1.90;;
16969;SDS011;8601;48.718;8.992;2024-03-17T13:27:50;4.80;;;2.10;;
16969;SDS011;8601;48.718;8.992;2024-03-17T13:30:18;4.07;;;1.83;;
16969;SDS011;8601;48.718;8.992;2024-03-17T13:32:47;2.30;;;2.10;;
16969;SDS011;8601;48.718;8.992;2024-03-17T13:35:17;2.40;;;1.87;;
16969;SDS011;8601;48.718;8.992;2024-03-17T13:37:53;2.93;;;1.80;;
16969;SDS011;8601;48.718;8.992;2024-03-17T13:40:21;2.87;;;2.00;;
16969;SDS011;8601;48.718;8.992;2024-03-17T13:42:50;1.80;;;1.70;;
16969;SDS011;8601;48.718;8.992;2024-03-17T13:45:18;5.00;;;2.37;;
16969;SDS011;8601;48.718;8.992;2024-03-17T13:47:46;3.57;;;2.10;;
16969;SDS011;8601;48.718;8.992;2024-03-17T13:50:15;2.63;;;2.10;;
16969;SDS011;8601;48.718;8.992;2024-03-17T13:52:43;2.20;;;2.00;;
16969;SDS011;8601;48.718;8.992;2024-03-17T13:55:12;2.70;;;2.00;;
16969;SDS011;8601;48.718;8.992;2024-03-17T13:57:41;1.87;;;1.63;;
16969;SDS011;8601;48.718;8.992;2024-03-17T14:00:09;2.60;;;1.57;;
16969;SDS011;8601;48.718;8.992;2024-03-17T14:02:40;4.03;;;2.00;;
16969;SDS011;8601;48.718;8.992;2024-03-17T14:05:07;2.07;;;1.70;;
16969;SDS011;8601;48.718;8.992;2024-03-17T14:07:38;1.80;;;1.70;;
16969;SDS011;8601;48.718;8.992;2024-03-17T14:10:06;2.53;;;1.53;;
16969;SDS011;8601;48.718;8.992;2024-03-17T14:12:35;2.90;;;1.50;;
16969;SDS011;8601;48.718;8.992;2024-03-17T14:15:03;4.00;;;1.67;;
16969;SDS011;8601;48.718;8.992;2024-03-17T14:17:31;3.97;;;1.87;;
16969;SDS011;8601;48.718;8.992;2024-03-17T14:19:58;2.57;;;1.73;;
16969;SDS011;8601;48.718;8.992;2024-03-17T14:22:25;2.93;;;1.80;;
16969;SDS011;8601;48.718;8.992;2024-03-17T14:24:51;3.83;;;1.63;;
16969;SDS011;8601;48.718;8.992;2024-03-17T14:27:18;2.70;;;1.50;;
16969;SDS011;8601;48.718;8.992;2024-03-17T14:29:47;1.83;;;1.40;;
16969;SDS011;8601;48.718;8.992;2024-03-17T14:32:14;2.57;;;1.40;;
16969;SDS011;8601;48.718;8.992;2024-03-17T14:34:40;3.93;;;1.77;;
16969;SDS011;8601;48.718;8.992;2024-03-17T14:37:07;1.50;;;1.40;;
16969;SDS011;8601;48.718;8.992;2024-03-17T14:39:34;3.53;;;1.70;;
16969;SDS011;8601;48.718;8.992;2024-03-17T14:42:03;3.43;;;1.60;;
16969;SDS011;8601;48.718;8.992;2024-03-17T14:44:31;2.10;;;1.40;;
16969;SDS011;8601;48.718;8.992;2024-03-17T14:46:59;2.20;;;1.60;;
16969;SDS011;8601;48.718;8.992;2024-03-17T14:49:26;2.13;;;1.30;;
16969;SDS011;8601;48.718;8.992;2024-03-17T14:51:53;1.57;;;1.40;;
16969;SDS011;8601;48.718;8.992;2024-03-17T14:54:21;2.20;;;1.30;;
16969;SDS011;8601;48.718;8.992;2024-03-17T14:56:48;1.60;;;1.30;;
16969;SDS011;8601;48.718;8.992;2024-03-17T14:59:16;2.27;;;1.73;;
16969;SDS011;8601;48.718;8.992;2024-03-17T15:01:44;2.47;;;1.70;;
16969;SDS011;8601;48.718;8.992;2024-03-17T15:04:12;1.83;;;1.50;;
16969;SDS011;8601;48.718;8.992;2024-03-17T15:06:45;1.97;;;1.50;;
16969;SDS011;8601;48.718;8.992;2024-03-17T15:09:11;2.20;;;1.60;;
16969;SDS011;8601;48.718;8.992;2024-03-17T15:11:38;2.30;;;1.50;;
16969;SDS011;8601;48.718;8.992;2024-03-17T15:14:05;2.70;;;1.43;;
16969;SDS011;8601;48.718;8.992;2024-03-17T15:16:36;2.87;;;1.50;;
16969;SDS011;8601;48.718;8.992;2024-03-17T15:19:03;1.57;;;1.33;;
16969;SDS011;8601;48.718;8.992;2024-03-17T15:21:32;2.47;;;1.40;;
16969;SDS011;8601;48.718;8.992;2024-03-17T15:23:59;2.73;;;1.43;;
16969;SDS011;8601;48.718;8.992;2024-03-17T15:26:27;2.63;;;1.53;;
16969;SDS011;8601;48.718;8.992;2024-03-17T15:28:55;2.77;;;1.30;;
16969;SDS011;8601;48.718;8.992;2024-03-17T15:31:22;2.97;;;1.40;;
16969;SDS011;8601;48.718;8.992;2024-03-17T15:33:50;1.53;;;1.30;;
16969;SDS011;8601;48.718;8.992;2024-03-17T15:36:17;2.60;;;1.30;;
16969;SDS011;8601;48.718;8.992;2024-03-17T15:38:46;3.07;;;1.40;;
16969;SDS011;8601;48.718;8.992;2024-03-17T15:41:13;1.97;;;1.50;;
16969;SDS011;8601;48.718;8.992;2024-03-17T15:43:40;2.43;;;1.30;;
16969;SDS011;8601;48.718;8.992;2024-03-17T15:46:08;3.27;;;1.90;;
16969;SDS011;8601;48.718;8.992;2024-03-17T15:48:40;3.60;;;2.07;;
16969;SDS011;8601;48.718;8.992;2024-03-17T15:51:07;2.43;;;2.10;;
16969;SDS011;8601;48.718;8.992;2024-03-17T15:53:34;3.23;;;2.47;;
16969;SDS011;8601;48.718;8.992;2024-03-17T15:56:02;3.23;;;1.83;;
16969;SDS011;8601;48.718;8.992;2024-03-17T15:58:30;4.10;;;2.47;;
16969;SDS011;8601;48.718;8.992;2024-03-17T16:00:57;3.20;;;2.20;;
16969;SDS011;8601;48.718;8.992;2024-03-17T16:03:30;3.93;;;2.60;;